Предлагаем Вашему вниманию английскую версию страницы: AUTOTAF.ME 28938 - aviation weather forecast Kizilskoe

AUTOTAF 28938 - авиапрогноз Кизилское

Сегодня рассвет 02:17 UTC, восход солнца 02:53 UTC,
местный полдень 07:48 UTC, заход солнца 12:42 UTC,
наступление темноты 13:18 UTC.

Краткий прогноз 28938 на 9 часов

AUTOTAF.ME 28938 270800Z 2709/2718 35011G16MPS 9999 BKN037     
  FM271500 34004MPS CAVOK

Детальный прогноз 28938 на 24 часа

AUTOTAF.ME 28938 270800Z 2709/2809 35011G16MPS 9999 BKN037 TX05/2809Z TNM01/2718Z   
  FM271500 34004MPS 9999 SKC  
  BECMG 2719/2721 VRB02MPS   
  FM280300 20003MPS 9999 BKN093  
  BECMG 2807/2809 VRB02MPS

Подробный табличный прогноз

Время (UTC) miniAUTOTAF на 3 ч WX FZLVL
M AGL
ICE TURB Т
(°С)
Тd
(°С)
f(%) QNH
(гПа)
WIND/T
06 34013G18MPS 9999 BKN021 70 MOD FL70/FL80 MOD FL30/FL40 1 -8 53 1016 ...
09 35011G16MPS 9999 BKN037 300 MOD FL50/FL60 MOD SFC/FL40 4 -6 49 1018 ...
12 34009G14MPS 9999 SCT023 360 MOD SFC/FL40 3 -5 57 1022 ...
15 34004MPS 9999 SKC SFC MOD SFC/FL30 -0 -6 68 1025 ...
18 34003MPS 9999 BKN230 SFC -1 -6 72 1028 ...
21 VRB02MPS 9999 BKN177 SFC MOD FL190/FL200 -1 -6 71 1029 ...
28.10.2020
00 VRB02MPS 9999 BKN132 SFC -1 -6 68 1031 ...
03 20003MPS 9999 BKN093 SFC FBL FL110/FL190 -1 -7 67 1032 ...
06 22003MPS 9999 BKN075 180 MOD FL90/FL100 2 -7 51 1033 ...
09 VRB02MPS 9999 OVC058 1950 MOD FL90/FL100 MOD SFC/FL30 5 -7 40 1031 ...
12 VRB02MPS 9999 BKN094 1950 MOD FL90/FL100 4 -5 50 1032 ...
15 VRB02MPS 9999 BKN094 2100 MOD FL110/FL120 2 -5 57 1033 ...
18 VRB02MPS 9999 BKN114 2250 MOD FL120/FL130 2 -6 55 1033 ...
21 VRB02MPS 9999 BKN114 2250 MOD FL120/FL190 2 -8 50 1033 ...
29.10.2020
00 VRB02MPS 9999 BKN134 2400 FBL FL150/FL190 1 -9 46 1033 ...
03 VRB02MPS 9999 OVC157 2400 FBL FL170/FL190 1 -10 44 1034 ...


Широта 52.7°, долгота 58.9°, высота 316 м абс.
Средняя высота рельефа местности 345 м абс.
Прогнозы обновляются четыре раза в сутки: в 02, 08, 14, 20 ч всемирного времени.


Выбрать прогноз по другой модели Кизилское
Онлайн-сводка гроз по Кизилское (для РФ и ближнего зарубежья)
Карта фактических гроз в окрестностях Кизилское
Динамические прогностические карты (ventusky.com)
Прогностическая карта высоты нижней границы облаков по Кизилское (windy.com)
Выбрать другой город

Прогноз предназначен для личного научно-познавательного использования частными лицами
и не предназначен для принятия важных решений и выполнения реальных полётов воздушных судов

При копировании или ином использовании любых материалов данного сайта ссылка на © meteocenter.asia обязательна.

1.11/1.6